SUSQUEDA - St. MARTÍ SACALM (La Selva)





Hora UTC 04:35
Temperatura 14.6 ºC
Humitat 86.5 %
Pressió 1014.2 hPa
Pluja 0.0 mm
Velocitat vent 3.1 km/h
Direcció vent NE
Radiació solar 21.5 W/m²

Dades diàries 2024-05-30



Hora UTC (hivern +1h; estiu +2h)
Temperatura (ºC) Humitat (%) Pressió (hPa) Velocitat vent (km/h) Precipitació (mm) Radiació solar (W/m²)
Hora UTC Aire Humitat Pressió Vel. Dir. Vel. Max Dir. Intent. màx 5 min. Rad. Sol.
00:05 16.6 77.1 1016.3 3.8 WSW 3.8 SW 0.0 0.1
00:10 16.7 76.4 1016.3 1.7 SW 3.9 SW 0.0 0.1
00:15 16.8 75.5 1016.2 4.1 SSW 6.7 SW 0.0 0.1
00:20 16.8 75.2 1016.2 4.4 SW 6.4 SSW 0.0 0.1
00:25 16.8 75.9 1016.2 4.0 SSW 6.7 SSW 0.0 0.1
00:30 16.8 75.6 1016.2 4.6 SSW 6.7 SSW 0.0 0.1
00:35 16.8 76.1 1016.1 4.7 SSW 6.7 SSW 0.0 0.1
00:40 16.7 76.3 1016.0 5.1 SSW 7.1 SSW 0.0 0.1
00:45 16.7 76.3 1016.0 5.3 SSW 6.7 S 0.0 0.1
00:50 16.7 76.0 1015.9 5.9 SSW 8.5 SSW 0.0 0.1
00:55 16.8 75.5 1015.9 5.1 SSW 7.1 SW 0.0 0.1
01:00 16.8 75.5 1015.9 5.3 SSW 8.1 SW 0.0 0.1
01:05 16.6 76.4 1015.9 6.8 SW 8.1 SW 0.0 0.1
01:10 16.6 76.5 1015.8 7.6 SW 8.8 SW 0.0 0.1
01:15 16.5 76.5 1015.7 8.2 SW 9.9 SW 0.0 0.1
01:20 16.4 76.8 1015.6 9.1 SW 10.6 SW 0.0 0.1
01:25 16.3 77.1 1015.6 9.7 SW 11.0 SW 0.0 0.1
01:30 16.4 76.7 1015.5 9.6 SSW 11.7 SW 0.0 0.1
01:35 16.4 76.4 1015.5 8.8 SSW 11.0 SSW 0.0 0.1
01:40 16.4 76.5 1015.5 7.2 SSW 9.5 SSW 0.0 0.1
01:45 16.4 76.6 1015.5 7.5 SSW 9.2 SSW 0.0 0.1
01:50 16.3 76.8 1015.4 7.5 SSW 9.9 SSW 0.0 0.1
01:55 16.1 77.6 1015.3 5.6 SSW 8.5 SSW 0.0 0.1
02:00 16.1 77.8 1015.3 3.9 SSW 6.4 SSW 0.0 0.1
02:05 16.0 77.9 1015.2 4.1 SSW 5.3 SSW 0.0 0.1
02:10 16.0 78.2 1015.2 3.8 SSW 6.0 S 0.0 0.1
02:15 16.0 77.7 1015.3 4.0 SSW 6.4 SSW 0.0 0.1
02:20 16.2 76.6 1015.2 5.2 SSW 8.1 SW 0.0 0.1
02:25 16.3 76.0 1015.2 4.3 SSW 7.1 SSW 0.0 0.1
02:30 16.4 75.4 1015.1 4.3 SSW 5.3 S 0.0 0.1
02:35 16.4 75.3 1015.1 1.6 SSW 3.9 SSW 0.0 0.1
02:40 16.1 76.3 1015.0 0.3 SSE 2.8 SSE 0.0 0.1
02:45 16.0 77.2 1015.0 3.3 SSE 5.0 SSE 0.0 0.1
02:50 15.9 77.6 1014.8 1.7 SSW 2.5 SSW 0.0 0.1
02:55 15.9 78.1 1014.8 2.3 SSW 3.9 S 0.0 0.1
03:00 15.8 78.5 1014.7 2.9 S 4.6 SSE 0.0 0.1
03:05 15.6 79.4 1014.7 3.8 S 6.0 SSE 0.0 0.1
03:10 15.4 80.4 1014.6 5.0 SSE 7.1 SSE 0.0 0.1
03:15 15.3 81.5 1014.6 4.3 S 6.0 SSE 0.0 0.1
03:20 15.2 82.9 1014.5 5.2 SSE 7.4 SSE 0.0 0.1
03:25 15.0 83.9 1014.5 4.7 SSE 6.7 SSE 0.0 0.1
03:30 14.9 84.9 1014.4 3.5 SSE 6.0 SSE 0.0 0.1
03:35 14.8 85.4 1014.4 1.0 E 3.2 ENE 0.0 0.1
03:40 14.7 86.0 1014.3 1.6 ENE 3.9 ENE 0.0 0.1
03:45 14.7 85.7 1014.4 3.9 ENE 6.4 NE 0.0 0.1
03:50 14.7 85.3 1014.4 5.2 ENE 6.0 ENE 0.0 0.1
03:55 14.7 85.4 1014.3 4.9 NE 6.0 NE 0.0 0.2
04:00 14.7 85.5 1014.2 3.7 NNE 6.0 NNE 0.0 0.2
04:05 14.7 85.5 1014.2 4.3 NNE 6.0 NNE 0.0 0.5
04:10 14.6 85.9 1014.2 6.7 NNE 9.5 NNE 0.0 1.3
04:15 14.5 86.6 1014.2 6.9 NNE 9.5 NNE 0.0 3.2
04:20 14.4 87.1 1014.2 5.6 NNE 8.1 NNE 0.0 5.8
04:25 14.4 87.4 1014.2 4.7 NNE 5.7 NNE 0.0 9.1
04:30 14.4 87.5 1014.2 5.1 NNE 8.1 NNE 0.0 15.4
04:35 14.6 86.5 1014.2 3.1 NE 6.7 NE 0.0 21.5
Màxima 16.9 87.5 1016.3 9.7 SW 11.7 SW 0.0 21.5
Mínima 14.4 75.2 1014.2
Total 0.0